createdAt,value
2018-06-20T00:00:50.594Z,48.53
2018-06-20T00:03:19.738Z,48.78
2018-06-20T00:05:48.669Z,48.68
2018-06-20T00:08:17.644Z,48.07
2018-06-20T00:10:46.729Z,47.46
2018-06-20T00:13:15.650Z,48.64
2018-06-20T00:15:44.652Z,48.13
2018-06-20T00:18:13.917Z,48.15
2018-06-20T00:20:42.809Z,47.24
2018-06-20T00:23:11.804Z,47.18
2018-06-20T00:25:40.779Z,47.22
2018-06-20T00:28:09.775Z,46.39
2018-06-20T00:30:38.684Z,46.54
2018-06-20T00:33:07.737Z,47.02
2018-06-20T00:35:36.675Z,46.89
2018-06-20T00:38:05.781Z,46.37
2018-06-20T00:40:35.912Z,47.51
2018-06-20T00:43:04.944Z,47.76
2018-06-20T00:45:33.863Z,48.11
2018-06-20T00:48:02.872Z,46.49
2018-06-20T00:50:32.084Z,46.47
2018-06-20T00:53:00.996Z,48.07
2018-06-20T00:55:41.027Z,47.78
2018-06-20T00:58:09.980Z,47.55
2018-06-20T01:00:40.144Z,47.81
2018-06-20T01:03:09.308Z,47.48
2018-06-20T01:05:38.256Z,47.41
2018-06-20T01:08:08.341Z,47.95
2018-06-20T01:10:37.337Z,48.63
2018-06-20T01:13:06.320Z,48.71
2018-06-20T01:15:36.104Z,48.35
2018-06-20T01:18:05.360Z,48.47
2018-06-20T01:20:34.829Z,48.37
2018-06-20T01:23:04.500Z,47.64
2018-06-20T01:25:33.568Z,48.71
2018-06-20T01:28:02.480Z,47.70
2018-06-20T01:30:31.544Z,47.45
2018-06-20T01:33:00.589Z,47.49
2018-06-20T01:35:29.719Z,47.53
2018-06-20T01:37:58.619Z,47.41
2018-06-20T01:40:27.678Z,47.65
2018-06-20T01:42:56.768Z,48.87
2018-06-20T01:45:25.697Z,48.26
2018-06-20T01:47:54.749Z,47.74
2018-06-20T01:50:28.519Z,46.72
2018-06-20T01:52:58.069Z,46.16
2018-06-20T01:55:27.818Z,46.33
2018-06-20T01:57:56.739Z,46.03
2018-06-20T02:00:27.051Z,46.37
2018-06-20T02:02:56.671Z,45.96
2018-06-20T02:05:26.313Z,46.11
2018-06-20T02:07:55.323Z,46.18
2018-06-20T02:10:24.317Z,44.84
2018-06-20T02:12:53.301Z,44.11
2018-06-20T02:15:22.271Z,45.63
2018-06-20T02:17:53.306Z,44.45
2018-06-20T02:20:22.255Z,44.14
2018-06-20T02:22:52.283Z,45.00
2018-06-20T02:25:21.253Z,44.39
2018-06-20T02:27:50.420Z,44.85
2018-06-20T02:30:20.022Z,44.63
2018-06-20T02:32:48.939Z,44.83
2018-06-20T02:35:17.939Z,43.49
2018-06-20T02:37:46.860Z,44.60
2018-06-20T02:40:15.869Z,43.58
2018-06-20T02:42:44.851Z,44.29
2018-06-20T02:45:13.860Z,43.34
2018-06-20T02:47:44.316Z,44.13
2018-06-20T02:50:14.347Z,43.03
2018-06-20T02:52:43.303Z,43.07
2018-06-20T02:55:12.354Z,43.57
2018-06-20T02:57:41.426Z,43.72
2018-06-20T03:00:10.469Z,43.43
2018-06-20T03:02:39.445Z,44.96
2018-06-20T03:05:08.423Z,44.54
2018-06-20T03:07:38.140Z,49.05
2018-06-20T03:10:07.104Z,49.65
2018-06-20T03:12:36.140Z,50.00
2018-06-20T03:15:05.212Z,50.75
2018-06-20T03:17:34.868Z,51.86
2018-06-20T03:20:03.972Z,52.13
2018-06-20T03:22:32.935Z,53.47
2018-06-20T03:25:01.903Z,54.09
2018-06-20T03:27:30.868Z,54.86
2018-06-20T03:30:00.302Z,54.47
2018-06-20T03:32:29.242Z,56.15
2018-06-20T03:34:58.255Z,55.18
2018-06-20T03:37:27.648Z,57.70
2018-06-20T03:39:56.633Z,56.56
2018-06-20T03:42:25.652Z,57.59
2018-06-20T03:44:54.647Z,57.19
2018-06-20T03:47:24.135Z,57.77
2018-06-20T03:49:53.114Z,58.89
2018-06-20T03:52:22.227Z,58.90
2018-06-20T03:54:51.240Z,58.75
2018-06-20T03:57:20.498Z,58.72
2018-06-20T03:59:49.448Z,59.37
2018-06-20T04:02:18.507Z,58.85
2018-06-20T04:04:47.533Z,57.02
2018-06-20T04:07:16.520Z,58.35
2018-06-20T04:09:46.041Z,56.83
2018-06-20T04:12:15.081Z,58.96
2018-06-20T04:14:44.005Z,58.12
2018-06-20T04:17:13.683Z,57.12
2018-06-20T04:19:43.490Z,58.20
2018-06-20T04:22:12.392Z,57.43
2018-06-20T04:24:42.678Z,57.81
2018-06-20T04:27:12.455Z,57.13
2018-06-20T04:29:41.396Z,58.91
2018-06-20T04:32:10.377Z,58.06
2018-06-20T04:34:39.393Z,56.20
2018-06-20T04:37:08.366Z,55.53
2018-06-20T04:39:37.286Z,51.57
2018-06-20T04:42:06.298Z,51.27
2018-06-20T04:44:35.761Z,49.85
2018-06-20T04:47:04.698Z,47.98
2018-06-20T04:49:33.854Z,48.64
2018-06-20T04:52:02.812Z,47.70
2018-06-20T04:54:31.825Z,46.85
2018-06-20T04:57:00.937Z,47.62
2018-06-20T04:59:29.890Z,46.25
2018-06-20T05:01:58.840Z,46.68
2018-06-20T05:04:28.037Z,45.49
2018-06-20T05:06:56.974Z,45.23
2018-06-20T05:09:25.930Z,45.01
2018-06-20T05:11:55.583Z,44.76
2018-06-20T05:14:24.539Z,44.38
2018-06-20T05:16:53.497Z,43.72
2018-06-20T05:19:23.049Z,44.52
2018-06-20T05:21:52.044Z,44.65
2018-06-20T05:24:20.951Z,43.65
2018-06-20T05:26:49.914Z,43.65
2018-06-20T05:29:19.045Z,43.94
2018-06-20T05:31:48.051Z,44.28
2018-06-20T05:34:17.100Z,41.86
2018-06-20T05:36:46.031Z,41.54
2018-06-20T05:39:15.247Z,45.04
2018-06-20T05:41:44.315Z,44.62
2018-06-20T05:44:13.295Z,39.73
2018-06-20T05:46:42.268Z,41.58
2018-06-20T05:49:11.371Z,41.27
2018-06-20T05:51:40.417Z,43.24
2018-06-20T05:54:09.396Z,41.72
2018-06-20T05:56:38.443Z,42.67
2018-06-20T05:59:07.457Z,38.80
2018-06-20T06:01:36.392Z,40.96
2018-06-20T06:04:05.438Z,41.50
2018-06-20T06:06:34.346Z,41.94
2018-06-20T06:09:03.369Z,41.63
2018-06-20T06:11:32.360Z,39.85
2018-06-20T06:14:01.281Z,40.83
2018-06-20T06:16:30.217Z,38.77
2018-06-20T06:19:00.243Z,37.52
2018-06-20T06:21:29.180Z,37.29
2018-06-20T06:23:58.088Z,41.31
2018-06-20T06:26:27.668Z,44.44
2018-06-20T06:28:56.619Z,41.45
2018-06-20T06:31:26.015Z,38.29
2018-06-20T06:33:55.943Z,37.05
2018-06-20T06:36:24.886Z,41.36
2018-06-20T06:38:53.784Z,36.98
2018-06-20T06:41:22.772Z,37.04
2018-06-20T06:43:51.761Z,38.50
2018-06-20T06:46:21.765Z,37.41
2018-06-20T06:48:51.418Z,35.87
2018-06-20T06:51:20.427Z,38.60
2018-06-20T06:53:49.932Z,37.27
2018-06-20T06:56:18.953Z,33.37
2018-06-20T06:58:47.867Z,38.05
2018-06-20T07:01:16.812Z,35.99
2018-06-20T07:03:45.795Z,28.50
2018-06-20T07:06:14.811Z,30.38
2018-06-20T07:08:43.780Z,30.12
2018-06-20T07:11:12.741Z,29.30
2018-06-20T07:13:41.731Z,29.88
2018-06-20T07:16:11.256Z,26.96
2018-06-20T07:18:41.442Z,26.31
2018-06-20T07:21:10.346Z,28.37
2018-06-20T07:23:39.296Z,27.49
2018-06-20T07:26:08.264Z,29.01
2018-06-20T07:28:37.871Z,27.17
2018-06-20T07:31:06.824Z,28.74
2018-06-20T07:33:35.808Z,28.36
2018-06-20T07:36:05.416Z,26.01
2018-06-20T07:38:34.348Z,27.58
2018-06-20T07:41:03.390Z,27.87
2018-06-20T07:43:33.216Z,27.23
2018-06-20T07:46:02.216Z,30.34
2018-06-20T07:48:31.197Z,30.06
2018-06-20T07:51:00.144Z,30.29
2018-06-20T07:53:29.217Z,26.87
2018-06-20T07:55:58.485Z,24.72
2018-06-20T07:58:33.091Z,25.83
2018-06-20T08:01:07.292Z,24.28
2018-06-20T08:03:41.543Z,23.92
2018-06-20T08:06:15.714Z,22.77
2018-06-20T08:08:49.819Z,24.48
2018-06-20T08:11:23.924Z,22.11
2018-06-20T08:13:58.025Z,22.57
2018-06-20T08:16:32.130Z,25.48
2018-06-20T08:19:06.107Z,23.51
2018-06-20T08:21:35.141Z,21.58
2018-06-20T08:24:04.135Z,22.88
2018-06-20T08:26:34.012Z,22.97
2018-06-20T08:29:03.483Z,23.41
2018-06-20T08:31:32.484Z,22.75
2018-06-20T08:34:02.475Z,22.44
2018-06-20T08:36:31.456Z,21.97
2018-06-20T08:39:00.433Z,21.66
2018-06-20T08:41:29.421Z,26.19
2018-06-20T08:43:58.389Z,25.49
2018-06-20T08:46:27.378Z,26.29
2018-06-20T08:48:56.316Z,25.37
2018-06-20T08:51:25.282Z,23.12
2018-06-20T08:53:54.235Z,24.10
2018-06-20T08:56:23.484Z,22.47
2018-06-20T08:58:52.978Z,23.67
2018-06-20T09:01:21.986Z,21.35
2018-06-20T09:03:54.026Z,20.86
2018-06-20T09:06:27.958Z,21.45
2018-06-20T09:09:03.067Z,19.50
2018-06-20T09:12:38.616Z,20.83
2018-06-20T09:15:12.655Z,24.16
2018-06-20T09:18:49.635Z,23.96
2018-06-20T09:21:18.576Z,24.58
2018-06-20T09:23:47.509Z,25.19
2018-06-20T09:26:16.529Z,23.27
2018-06-20T09:28:45.503Z,23.63
2018-06-20T09:31:14.521Z,20.35
2018-06-20T09:33:43.456Z,22.91
2018-06-20T09:36:12.436Z,20.73
2018-06-20T09:38:41.534Z,21.11
2018-06-20T09:41:10.426Z,20.00
2018-06-20T09:43:39.483Z,19.28
2018-06-20T09:46:08.543Z,22.99
2018-06-20T09:48:37.483Z,21.39
2018-06-20T09:51:06.606Z,20.04
2018-06-20T09:53:35.507Z,20.67
2018-06-20T09:56:04.436Z,21.38
2018-06-20T09:58:33.521Z,20.26
2018-06-20T10:01:07.600Z,23.23
2018-06-20T10:03:41.612Z,21.59
2018-06-20T10:06:16.443Z,21.15
2018-06-20T10:08:52.316Z,22.40
2018-06-20T10:11:26.390Z,19.81
2018-06-20T10:14:00.887Z,25.06
2018-06-20T10:16:30.544Z,21.10
2018-06-20T10:18:59.465Z,20.05
2018-06-20T10:21:28.609Z,20.37
2018-06-20T10:23:57.526Z,23.36
2018-06-20T10:26:27.303Z,22.34
2018-06-20T10:28:56.339Z,20.25
2018-06-20T10:31:25.286Z,23.29
2018-06-20T10:33:54.350Z,21.63
2018-06-20T10:36:23.319Z,22.67
2018-06-20T10:38:52.993Z,21.50
2018-06-20T10:41:22.940Z,21.87
2018-06-20T10:43:52.500Z,20.59
2018-06-20T10:46:26.727Z,19.49
2018-06-20T10:48:56.668Z,19.99
2018-06-20T10:51:25.650Z,16.23
2018-06-20T10:53:54.667Z,20.50
2018-06-20T10:56:29.370Z,20.38
2018-06-20T10:59:04.187Z,20.93
2018-06-20T11:01:39.172Z,21.69
2018-06-20T11:04:13.680Z,22.01
2018-06-20T11:06:47.861Z,18.15
2018-06-20T11:09:24.123Z,22.82
2018-06-20T11:11:58.219Z,22.12
2018-06-20T11:14:27.253Z,20.82
2018-06-20T11:16:56.457Z,20.77
2018-06-20T11:19:25.571Z,21.53
2018-06-20T11:21:54.565Z,25.42
2018-06-20T11:24:24.113Z,26.11
2018-06-20T11:26:53.128Z,29.61
2018-06-20T11:29:22.736Z,25.09
2018-06-20T11:31:51.723Z,25.27
2018-06-20T11:34:21.328Z,23.16
2018-06-20T11:36:50.269Z,22.66
2018-06-20T11:39:20.154Z,23.30
2018-06-20T11:41:49.131Z,26.25
2018-06-20T11:44:18.122Z,25.44
2018-06-20T11:46:52.175Z,21.50
2018-06-20T11:49:21.070Z,25.07
2018-06-20T11:51:50.042Z,23.59
2018-06-20T11:54:19.047Z,24.32
2018-06-20T11:56:48.261Z,24.73
2018-06-20T11:59:22.401Z,24.54
2018-06-20T12:01:56.589Z,24.79
2018-06-20T12:04:30.777Z,26.32
2018-06-20T12:07:04.742Z,27.70
2018-06-20T12:09:38.925Z,28.24
2018-06-20T12:12:12.888Z,28.20
2018-06-20T12:14:47.849Z,27.25
2018-06-20T12:17:23.138Z,28.33
2018-06-20T12:19:58.653Z,29.61
2018-06-20T12:22:32.625Z,26.35
2018-06-20T12:25:06.712Z,26.65
2018-06-20T12:27:41.392Z,26.43
2018-06-20T12:30:15.544Z,26.97
2018-06-20T12:32:49.579Z,27.43
2018-06-20T12:35:23.583Z,26.94
2018-06-20T12:37:57.525Z,25.65
2018-06-20T12:40:31.468Z,26.66
2018-06-20T12:43:05.557Z,26.69
2018-06-20T12:45:34.591Z,25.00
2018-06-20T12:48:04.024Z,27.05
2018-06-20T12:50:32.947Z,28.39
2018-06-20T12:53:02.764Z,30.03
2018-06-20T12:55:31.764Z,29.88
2018-06-20T12:58:01.468Z,28.68
2018-06-20T13:00:30.511Z,28.88
2018-06-20T13:02:59.860Z,29.07
2018-06-20T13:05:28.780Z,29.71
2018-06-20T13:07:57.704Z,30.89
2018-06-20T13:10:26.660Z,29.52
2018-06-20T13:12:55.749Z,31.84
2018-06-20T13:15:25.299Z,31.50
2018-06-20T13:17:54.248Z,31.39
2018-06-20T13:20:23.204Z,31.36
2018-06-20T13:22:52.248Z,30.87
2018-06-20T13:25:21.182Z,30.10
2018-06-20T13:27:50.705Z,31.27
2018-06-20T13:30:20.499Z,30.98
2018-06-20T13:32:54.548Z,30.88
2018-06-20T13:35:28.575Z,31.09
2018-06-20T13:38:02.447Z,32.02
2018-06-20T13:40:36.421Z,30.65
2018-06-20T13:43:10.588Z,30.34
2018-06-20T13:45:46.049Z,29.82
2018-06-20T13:48:20.049Z,30.07
2018-06-20T13:50:49.052Z,31.75
2018-06-20T13:53:18.056Z,31.31
2018-06-20T13:55:47.186Z,33.22
2018-06-20T13:58:16.844Z,31.76
2018-06-20T14:00:45.875Z,31.57
2018-06-20T14:03:14.837Z,31.14
2018-06-20T14:05:43.893Z,31.22
2018-06-20T14:08:12.796Z,30.97
2018-06-20T14:10:41.728Z,34.02
2018-06-20T14:13:10.776Z,31.43
2018-06-20T14:15:39.743Z,31.94
2018-06-20T14:18:08.975Z,33.51
2018-06-20T14:20:43.033Z,31.74
2018-06-20T14:23:11.997Z,32.93
2018-06-20T14:25:41.573Z,33.32
2018-06-20T14:28:10.706Z,33.22
2018-06-20T14:30:45.096Z,34.90
2018-06-20T14:33:19.320Z,35.30
2018-06-20T14:35:54.936Z,33.79
2018-06-20T14:38:29.024Z,34.98
2018-06-20T14:41:03.136Z,34.67
2018-06-20T14:43:37.184Z,35.02
2018-06-20T14:46:11.280Z,33.74
2018-06-20T14:48:40.264Z,33.97
2018-06-20T14:51:09.230Z,33.79
2018-06-20T14:53:38.268Z,33.64
2018-06-20T14:56:07.276Z,35.18
2018-06-20T14:58:36.237Z,33.45
2018-06-20T15:01:05.376Z,33.65
2018-06-20T15:03:34.566Z,35.48
2018-06-20T15:06:03.551Z,34.87
2018-06-20T15:08:32.487Z,35.20
2018-06-20T15:11:01.522Z,34.30
2018-06-20T15:13:30.438Z,33.32
2018-06-20T15:16:04.536Z,33.73
2018-06-20T15:18:33.571Z,35.18
2018-06-20T15:21:03.528Z,34.08
2018-06-20T15:23:32.640Z,34.92
2018-06-20T15:26:06.564Z,36.63
2018-06-20T15:28:40.653Z,35.89
2018-06-20T15:31:14.741Z,35.43
2018-06-20T15:33:48.742Z,35.13
2018-06-20T15:36:22.965Z,36.48
2018-06-20T15:38:52.586Z,36.86
2018-06-20T15:41:21.579Z,36.84
2018-06-20T15:43:50.527Z,36.23
2018-06-20T15:46:20.135Z,35.45
2018-06-20T15:48:49.116Z,36.96
2018-06-20T15:51:18.606Z,36.41
2018-06-20T15:53:48.499Z,36.66
2018-06-20T15:56:18.128Z,37.07
2018-06-20T15:58:47.065Z,36.86
2018-06-20T16:01:16.176Z,36.18
2018-06-20T16:03:45.135Z,36.16
2018-06-20T16:06:14.167Z,35.96
2018-06-20T16:08:48.204Z,35.73
2018-06-20T16:11:17.109Z,35.80
2018-06-20T16:13:46.072Z,35.31
2018-06-20T16:16:15.057Z,35.19
2018-06-20T16:20:55.755Z,35.14
2018-06-20T16:23:29.855Z,35.22
2018-06-20T16:27:06.680Z,36.60
2018-06-20T16:29:40.868Z,35.85
2018-06-20T16:32:10.173Z,35.25
2018-06-20T16:34:39.095Z,36.30
2018-06-20T16:37:08.065Z,36.47
2018-06-20T16:39:36.991Z,35.89
2018-06-20T16:42:05.989Z,36.08
2018-06-20T16:44:35.667Z,35.49
2018-06-20T16:47:04.672Z,35.80
2018-06-20T16:49:33.600Z,37.42
2018-06-20T16:52:03.240Z,38.04
2018-06-20T16:54:32.228Z,36.14
2018-06-20T16:57:01.238Z,36.84
2018-06-20T16:59:30.901Z,37.26
2018-06-20T17:02:05.089Z,36.93
2018-06-20T17:04:34.108Z,37.86
2018-06-20T17:07:03.137Z,36.76
2018-06-20T17:09:32.865Z,36.23
2018-06-20T17:12:07.237Z,38.00
2018-06-20T17:14:41.185Z,37.89
2018-06-20T17:17:15.238Z,38.70
2018-06-20T17:19:49.338Z,38.31
2018-06-20T17:22:23.367Z,38.76
2018-06-20T17:24:57.918Z,38.37
2018-06-20T17:27:26.909Z,39.09
2018-06-20T17:29:55.878Z,39.12
2018-06-20T17:32:27.977Z,38.98
2018-06-20T17:34:57.424Z,39.59
2018-06-20T17:37:26.493Z,37.89
2018-06-20T17:39:56.017Z,38.67
2018-06-20T17:42:24.997Z,39.23
2018-06-20T17:44:53.994Z,38.91
2018-06-20T17:47:22.996Z,38.73
2018-06-20T17:49:52.545Z,39.27
2018-06-20T17:52:21.487Z,40.11
2018-06-20T17:54:50.534Z,40.39
2018-06-20T17:57:19.460Z,40.41
2018-06-20T17:59:48.416Z,39.76
2018-06-20T18:02:17.511Z,41.38
2018-06-20T18:04:51.672Z,41.24
2018-06-20T18:07:25.844Z,40.67
2018-06-20T18:10:00.549Z,38.39
2018-06-20T18:12:35.093Z,37.53
2018-06-20T18:15:09.287Z,38.19
2018-06-20T18:17:38.356Z,38.94
2018-06-20T18:20:07.525Z,35.02
2018-06-20T18:22:36.496Z,35.67
2018-06-20T18:25:05.533Z,36.92
2018-06-20T18:27:34.546Z,37.23
2018-06-20T18:30:03.529Z,36.88
2018-06-20T18:32:32.545Z,37.52
2018-06-20T18:35:01.485Z,36.54
2018-06-20T18:37:30.494Z,35.04
2018-06-20T18:40:10.922Z,35.81
2018-06-20T18:42:39.844Z,35.25
2018-06-20T18:45:08.824Z,33.19
2018-06-20T18:47:42.962Z,32.35
2018-06-20T18:50:11.888Z,33.35
2018-06-20T18:52:40.783Z,33.55
2018-06-20T18:55:09.937Z,32.47
2018-06-20T18:59:46.500Z,32.30
2018-06-20T19:04:22.832Z,33.16
2018-06-20T19:06:57.038Z,35.64
2018-06-20T19:09:26.175Z,35.83
2018-06-20T19:11:55.879Z,34.58
2018-06-20T19:14:24.836Z,35.03
2018-06-20T19:16:53.873Z,34.83
2018-06-20T19:19:22.792Z,34.75
2018-06-20T19:21:51.744Z,34.64
2018-06-20T19:24:20.711Z,34.92
2018-06-20T19:26:49.683Z,35.37
2018-06-20T19:29:18.619Z,37.16
2018-06-20T19:31:47.784Z,35.91
2018-06-20T19:34:18.043Z,36.03
2018-06-20T19:36:50.464Z,35.27
2018-06-20T19:39:27.726Z,35.15
2018-06-20T19:42:00.512Z,36.65
2018-06-20T19:44:35.965Z,36.23
2018-06-20T19:47:08.614Z,37.16
2018-06-20T19:49:37.556Z,36.89
2018-06-20T19:52:06.537Z,37.54
2018-06-20T19:54:35.584Z,37.79
2018-06-20T19:57:05.243Z,38.69
2018-06-20T19:59:34.247Z,38.30
2018-06-20T20:02:03.302Z,39.20
2018-06-20T20:04:32.206Z,38.02
2018-06-20T20:07:01.259Z,37.65
2018-06-20T20:09:30.329Z,38.40
2018-06-20T20:11:59.323Z,36.94
2018-06-20T20:14:28.254Z,37.86
2018-06-20T20:16:57.242Z,36.86
2018-06-20T20:19:26.180Z,37.50
2018-06-20T20:21:55.188Z,36.40
2018-06-20T20:24:24.172Z,36.41
2018-06-20T20:26:53.113Z,35.36
2018-06-20T20:29:22.647Z,35.76
2018-06-20T20:31:51.660Z,35.51
2018-06-20T20:34:20.555Z,36.08
2018-06-20T20:36:49.568Z,35.45
2018-06-20T20:39:19.364Z,36.24
2018-06-20T20:41:48.404Z,36.88
2018-06-20T20:44:17.327Z,36.34
2018-06-20T20:46:46.901Z,35.76
2018-06-20T20:49:15.839Z,35.84
2018-06-20T20:51:44.796Z,36.35
2018-06-20T20:54:13.773Z,37.30
2018-06-20T20:56:42.778Z,37.53
2018-06-20T20:59:12.319Z,37.95
2018-06-20T21:01:41.312Z,35.76
2018-06-20T21:04:10.240Z,36.73
2018-06-20T21:06:39.214Z,37.36
2018-06-20T21:09:10.924Z,37.00
2018-06-20T21:11:39.951Z,36.46
2018-06-20T21:14:08.905Z,35.98
2018-06-20T21:16:38.037Z,36.52
2018-06-20T21:19:06.970Z,36.11
2018-06-20T21:21:35.908Z,36.26
2018-06-20T21:24:05.041Z,36.36
2018-06-20T21:26:34.003Z,35.77
2018-06-20T21:29:02.927Z,35.21
2018-06-20T21:31:31.925Z,34.88
2018-06-20T21:34:01.560Z,34.04
2018-06-20T21:36:30.460Z,34.99
2018-06-20T21:38:59.613Z,33.93
2018-06-20T21:41:28.537Z,33.63
2018-06-20T21:43:57.429Z,34.44
2018-06-20T21:46:26.399Z,33.92
2018-06-20T21:48:55.485Z,34.82
2018-06-20T21:51:24.496Z,33.48
2018-06-20T21:53:53.460Z,34.58
2018-06-20T21:56:22.961Z,34.03
2018-06-20T21:58:51.886Z,34.77
2018-06-20T22:01:20.951Z,34.36
2018-06-20T22:03:49.932Z,34.67
2018-06-20T22:06:18.893Z,35.28
2018-06-20T22:08:48.509Z,35.89
2018-06-20T22:11:18.093Z,35.07
2018-06-20T22:13:47.138Z,34.70
2018-06-20T22:16:16.704Z,34.50
2018-06-20T22:18:45.688Z,33.08
2018-06-20T22:21:14.609Z,33.95
2018-06-20T22:23:43.613Z,34.13
2018-06-20T22:26:12.561Z,35.21
2018-06-20T22:28:41.454Z,33.88
2018-06-20T22:31:10.463Z,34.12
2018-06-20T22:33:39.447Z,34.64
2018-06-20T22:36:08.483Z,33.27
2018-06-20T22:38:37.648Z,35.24
2018-06-20T22:41:06.716Z,33.55
2018-06-20T22:43:39.164Z,33.56
2018-06-20T22:46:08.139Z,33.32
2018-06-20T22:48:37.196Z,32.84
2018-06-20T22:51:06.942Z,33.14
2018-06-20T22:53:36.010Z,33.08
2018-06-20T22:56:05.427Z,33.28
2018-06-20T22:58:34.487Z,33.64
2018-06-20T23:01:03.481Z,33.04
2018-06-20T23:03:32.452Z,31.57
2018-06-20T23:06:01.472Z,32.88
2018-06-20T23:08:30.456Z,33.31
2018-06-20T23:10:59.927Z,33.63
2018-06-20T23:13:29.243Z,32.88
2018-06-20T23:15:58.224Z,33.77
2018-06-20T23:18:28.507Z,35.97
2018-06-20T23:20:58.340Z,34.85
2018-06-20T23:23:27.580Z,33.84
2018-06-20T23:25:56.587Z,35.54
2018-06-20T23:28:26.192Z,34.80
2018-06-20T23:30:55.217Z,36.01
2018-06-20T23:33:25.345Z,35.96
2018-06-20T23:35:54.418Z,35.27
2018-06-20T23:38:23.680Z,34.77
2018-06-20T23:40:52.732Z,36.06
2018-06-20T23:43:22.368Z,36.01
2018-06-20T23:45:51.683Z,35.36
2018-06-20T23:48:20.723Z,35.82
2018-06-20T23:50:50.292Z,35.27
2018-06-20T23:53:19.322Z,35.77
2018-06-20T23:55:48.314Z,36.43
2018-06-20T23:58:17.353Z,35.94
